Time;durP1;ratioP1;P1;durP2;ratioP2;P2;SDS_P1;SDS_P2;PMS_P1;PMS_P2;Temp;Humidity;BMP_temperature;BMP_pressure;BME280_temperature;BME280_humidity;BME280_pressure;Samples;Min_cycle;Max_cycle;Signal;HPM_P1;HPM_P2
2022/01/08 00:02:19;;;;;;;4.87;2.20;;;;;;;3.48;100.00;99735.13;5015979;28;20552;-49
2022/01/08 00:04:44;;;;;;;3.00;2.00;;;;;;;3.46;100.00;99735.13;5016256;28;20283;-49
2022/01/08 00:07:10;;;;;;;3.23;2.20;;;;;;;3.51;100.00;99725.78;5015905;28;20233;-50
2022/01/08 00:09:36;;;;;;;4.63;2.50;;;;;;;3.53;100.00;99723.25;5020344;28;20298;-50
2022/01/08 00:12:02;;;;;;;3.03;2.37;;;;;;;3.54;100.00;99714.72;5018800;28;20274;-50
2022/01/08 00:14:28;;;;;;;3.20;2.30;;;;;;;3.57;100.00;99703.66;5019821;28;20715;-50
2022/01/08 00:16:54;;;;;;;4.70;2.17;;;;;;;3.60;100.00;99708.81;5016465;28;20672;-50
2022/01/08 00:19:19;;;;;;;6.20;2.63;;;;;;;3.63;100.00;99693.50;5016853;28;20264;-50
2022/01/08 00:21:45;;;;;;;4.40;2.10;;;;;;;3.69;100.00;99680.75;5014622;28;20199;-51
2022/01/08 00:24:10;;;;;;;2.83;1.80;;;;;;;3.73;100.00;99677.38;5020571;28;20202;-50
2022/01/08 00:26:36;;;;;;;1.83;1.43;;;;;;;3.77;100.00;99676.56;5021118;28;20231;-50
2022/01/08 00:29:01;;;;;;;4.97;2.37;;;;;;;3.80;100.00;99668.88;5012751;28;20200;-50
2022/01/08 00:31:27;;;;;;;3.00;1.70;;;;;;;3.80;100.00;99668.06;5023553;28;20203;-50
2022/01/08 00:33:53;;;;;;;3.30;1.90;;;;;;;3.81;100.00;99657.81;5023102;28;20193;-50
2022/01/08 00:36:19;;;;;;;2.83;2.33;;;;;;;3.83;100.00;99656.97;5017741;28;20702;-50
2022/01/08 00:38:44;;;;;;;3.60;2.30;;;;;;;3.86;100.00;99642.47;5017039;28;20212;-50
2022/01/08 00:41:10;;;;;;;3.20;2.60;;;;;;;3.91;100.00;99639.97;5022715;28;20211;-50
2022/01/08 00:43:36;;;;;;;3.83;2.43;;;;;;;3.93;100.00;99639.16;5022169;28;20628;-50
2022/01/08 00:46:01;;;;;;;2.87;1.80;;;;;;;3.94;100.00;99634.88;5011653;28;20844;-50
2022/01/08 00:48:27;;;;;;;5.73;2.27;;;;;;;3.94;100.00;99629.75;5019328;28;20302;-50
2022/01/08 00:50:52;;;;;;;3.50;2.47;;;;;;;3.97;100.00;99633.22;5025723;28;20188;-50
2022/01/08 00:53:19;;;;;;;3.33;1.97;;;;;;;3.99;100.00;99625.53;5022973;28;20196;-50
2022/01/08 00:55:44;;;;;;;2.50;1.60;;;;;;;4.01;100.00;99617.88;5023177;28;20193;-50
2022/01/08 00:58:10;;;;;;;2.30;1.67;;;;;;;4.03;100.00;99617.03;5024110;28;20276;-50
2022/01/08 01:00:36;;;;;;;3.03;1.57;;;;;;;4.07;100.00;99613.66;5016409;28;20188;-50
2022/01/08 01:03:01;;;;;;;2.73;1.50;;;;;;;4.09;100.00;99594.00;5017712;28;20262;-50
2022/01/08 01:05:27;;;;;;;2.67;1.60;;;;;;;4.12;100.00;99586.34;5020276;28;20282;-49
2022/01/08 01:07:53;;;;;;;2.50;1.80;;;;;;;4.17;100.00;99580.41;5018043;28;20297;-50
2022/01/08 01:10:20;;;;;;;1.87;0.93;;;;;;;4.18;100.00;99569.31;5016103;28;20234;-50
2022/01/08 01:12:45;;;;;;;2.07;1.40;;;;;;;4.23;100.00;99565.94;5017012;28;20196;-50
2022/01/08 01:15:14;;;;;;;2.60;1.50;;;;;;;4.26;100.00;99558.25;5013939;28;20210;-50
2022/01/08 01:17:40;;;;;;;3.20;1.50;;;;;;;4.30;100.00;99564.25;5000776;28;20700;-50
2022/01/08 01:20:08;;;;;;;4.40;1.87;;;;;;;4.29;100.00;99559.13;5020151;28;20659;-50
2022/01/08 01:22:45;;;;;;;3.90;1.90;;;;;;;4.25;100.00;99560.78;5013353;28;20213;-50
2022/01/08 01:25:14;;;;;;;3.70;1.67;;;;;;;4.25;100.00;99555.69;5022122;28;20198;-50
2022/01/08 01:30:17;;;;;;;2.83;1.67;;;;;;;4.30;100.00;99546.31;5016655;28;20238;-50
2022/01/08 01:48:46;;;;;;;4.07;1.83;;;;;;;4.26;100.00;99526.66;5009893;28;20219;-50
2022/01/08 01:51:22;;;;;;;3.57;2.17;;;;;;;4.24;100.00;99516.41;5018017;28;20644;-50
2022/01/08 01:53:48;;;;;;;5.13;2.20;;;;;;;4.19;100.00;99515.53;5016628;28;20191;-50
2022/01/08 01:56:18;;;;;;;3.53;1.90;;;;;;;4.14;100.00;99506.13;5018858;28;20546;-49
2022/01/08 01:58:44;;;;;;;4.10;2.40;;;;;;;4.12;100.00;99509.53;5016958;28;20382;-50
2022/01/08 02:01:10;;;;;;;4.13;1.60;;;;;;;4.12;100.00;99506.97;5022855;28;20274;-50
2022/01/08 02:03:35;;;;;;;4.90;2.53;;;;;;;4.10;100.00;99502.69;5017859;28;20714;-50
2022/01/08 02:06:01;;;;;;;7.27;2.77;;;;;;;4.10;100.00;99506.09;5021208;28;20264;-50
2022/01/08 02:08:29;;;;;;;7.87;3.10;;;;;;;4.10;100.00;99497.56;5021104;28;20203;-50
2022/01/08 02:10:54;;;;;;;4.80;2.00;;;;;;;4.09;100.00;99503.53;5020703;28;20618;-49
2022/01/08 02:13:24;;;;;;;3.53;1.80;;;;;;;4.06;100.00;99494.16;5018102;28;20191;-50
2022/01/08 02:15:52;;;;;;;3.37;1.30;;;;;;;4.09;100.00;99495.84;5020787;28;20219;-50
2022/01/08 02:18:27;;;;;;;3.40;1.10;;;;;;;4.05;100.00;99491.56;5016553;28;20224;-50
2022/01/08 02:20:57;;;;;;;1.90;1.20;;;;;;;4.02;100.00;99486.41;5017364;28;20248;-50
2022/01/08 02:23:23;;;;;;;2.10;1.10;;;;;;;4.03;100.00;99485.56;5023602;28;20196;-50
2022/01/08 02:25:49;;;;;;;2.83;1.20;;;;;;;4.02;100.00;99484.72;5008648;28;20626;-50
2022/01/08 02:28:15;;;;;;;1.40;1.07;;;;;;;3.99;100.00;99489.00;5019133;28;20236;-50
2022/01/08 02:30:40;;;;;;;1.20;0.80;;;;;;;3.97;100.00;99481.28;5017660;28;20192;-50
2022/01/08 02:33:06;;;;;;;1.53;0.90;;;;;;;3.92;100.00;99481.25;5016719;28;20195;-50
2022/01/08 02:35:32;;;;;;;1.47;0.80;;;;;;;3.91;100.00;99478.72;5023299;28;20195;-50
2022/01/08 02:37:57;;;;;;;1.23;0.73;;;;;;;3.86;100.00;99472.69;5018068;28;20221;-50
2022/01/08 02:40:23;;;;;;;1.47;0.70;;;;;;;3.87;100.00;99469.28;5020566;28;20202;-49
2022/01/08 02:43:03;;;;;;;1.80;0.60;;;;;;;3.83;100.00;99465.00;5022703;28;20541;-50
2022/01/08 02:45:30;;;;;;;2.00;0.60;;;;;;;3.78;100.00;99462.41;5024088;28;20187;-49
2022/01/08 02:47:56;;;;;;;1.37;0.40;;;;;;;3.74;100.00;99464.13;5024104;28;20257;-49
2022/01/08 02:50:23;;;;;;;0.90;0.50;;;;;;;3.69;100.00;99468.34;5020529;28;20608;-49
2022/01/08 02:52:48;;;;;;;0.63;0.43;;;;;;;3.69;100.00;99449.59;5021543;28;20648;-50
2022/01/08 02:55:17;;;;;;;0.83;0.50;;;;;;;3.63;100.00;99446.13;5018915;28;20270;-49
2022/01/08 02:57:42;;;;;;;1.03;0.60;;;;;;;3.58;100.00;99455.47;5023295;28;20223;-50
2022/01/08 03:00:10;;;;;;;0.47;0.47;;;;;;;3.55;100.00;99460.59;5019577;28;20187;-50
2022/01/08 03:02:44;;;;;;;1.00;0.40;;;;;;;3.55;100.00;99459.72;5017192;28;20217;-49
2022/01/08 03:05:11;;;;;;;1.20;0.50;;;;;;;3.50;100.00;99450.31;5020500;28;20198;-50
2022/01/08 03:07:38;;;;;;;0.60;0.50;;;;;;;3.52;100.00;99458.00;5023802;28;20239;-50
2022/01/08 03:10:06;;;;;;;0.90;0.40;;;;;;;3.51;100.00;99472.50;5021227;28;20199;-50
2022/01/08 03:12:31;;;;;;;0.83;0.50;;;;;;;3.50;100.00;99464.81;5019665;28;20735;-50
2022/01/08 03:14:56;;;;;;;1.57;0.47;;;;;;;3.49;100.00;99473.34;5017310;28;20285;-50
2022/01/08 03:17:22;;;;;;;0.50;0.50;;;;;;;3.52;100.00;99470.81;5030189;28;20618;-50
2022/01/08 03:19:51;;;;;;;0.47;0.40;;;;;;;3.58;100.00;99465.72;5026549;28;20187;-50
2022/01/08 03:22:17;;;;;;;1.30;0.60;;;;;;;3.59;100.00;99474.25;5016805;28;20197;-50
2022/01/08 03:24:42;;;;;;;0.90;0.57;;;;;;;3.54;100.00;99469.13;5023168;28;20184;-50
2022/01/08 03:27:08;;;;;;;1.23;0.60;;;;;;;3.59;100.00;99462.31;5021453;28;20211;-50
2022/01/08 03:29:33;;;;;;;1.27;0.70;;;;;;;3.58;100.00;99473.38;5024274;28;20274;-50
2022/01/08 03:31:58;;;;;;;1.93;0.90;;;;;;;3.61;100.00;99470.00;5024423;28;20215;-50
2022/01/08 03:34:24;;;;;;;2.10;0.67;;;;;;;3.61;100.00;99470.00;5026493;28;20247;-50
2022/01/08 03:36:49;;;;;;;1.47;0.60;;;;;;;3.64;100.00;99478.56;5017591;28;20203;-50
2022/01/08 03:39:15;;;;;;;1.60;0.70;;;;;;;3.59;100.00;99489.63;5023202;28;20221;-50
2022/01/08 03:41:42;;;;;;;0.87;0.50;;;;;;;3.61;100.00;99498.16;5023807;28;20199;-50
2022/01/08 03:44:08;;;;;;;1.47;0.70;;;;;;;3.53;100.00;99510.03;5020153;28;20257;-50
2022/01/08 03:46:35;;;;;;;1.60;0.90;;;;;;;3.45;100.00;99510.84;5021932;28;20207;-50
2022/01/08 03:51:28;;;;;;;1.27;1.00;;;;;;;3.41;100.00;99519.31;5020105;28;20386;-50
2022/01/08 03:53:53;;;;;;;2.63;0.80;;;;;;;3.35;100.00;99529.50;5017691;28;20303;-50
2022/01/08 03:56:18;;;;;;;2.10;0.80;;;;;;;3.28;100.00;99538.81;5018206;28;20773;-50
2022/01/08 03:58:44;;;;;;;1.00;0.90;;;;;;;3.26;100.00;99537.09;5019378;28;20512;-50
2022/01/08 04:01:09;;;;;;;2.17;1.00;;;;;;;3.20;100.00;99545.56;5029288;28;20684;-50
2022/01/08 04:03:35;;;;;;;1.27;0.77;;;;;;;3.24;100.00;99556.69;5021482;28;20321;-50
2022/01/08 04:06:00;;;;;;;2.60;1.10;;;;;;;3.17;100.00;99551.53;5016284;28;20303;-50
2022/01/08 04:08:26;;;;;;;1.97;1.03;;;;;;;3.18;100.00;99552.38;5022343;28;20210;-50
2022/01/08 04:10:51;;;;;;;1.13;0.83;;;;;;;3.13;100.00;99559.13;5025271;28;20180;-50
2022/01/08 04:13:24;;;;;;;1.07;0.87;;;;;;;3.13;100.00;99569.34;5014280;28;20179;-50
2022/01/08 04:15:53;;;;;;;1.27;0.87;;;;;;;3.10;100.00;99575.31;5014303;28;20191;-50
2022/01/08 04:18:19;;;;;;;1.80;0.80;;;;;;;3.08;100.00;99577.00;5011579;28;20219;-50
2022/01/08 04:21:09;;;;;;;1.23;1.00;;;;;;;3.13;100.00;99580.47;5020523;28;20557;-50
2022/01/08 04:23:35;;;;;;;1.20;0.80;;;;;;;3.04;100.00;99582.91;5018465;28;20196;-50
2022/01/08 04:26:01;;;;;;;2.40;0.93;;;;;;;3.02;100.00;99576.94;5016791;28;20196;-50
2022/01/08 04:28:26;;;;;;;1.10;1.00;;;;;;;3.03;100.00;99589.72;5020244;28;20211;-50
2022/01/08 04:30:52;;;;;;;1.67;1.10;;;;;;;3.05;100.00;99595.72;5014732;28;20195;-50
2022/01/08 04:33:17;;;;;;;2.13;1.20;;;;;;;3.05;100.00;99599.97;5020989;28;20198;-50
2022/01/08 04:35:43;;;;;;;3.70;1.30;;;;;;;3.05;100.00;99608.50;5023503;28;20403;-51
2022/01/08 04:38:08;;;;;;;1.53;1.03;;;;;;;3.03;100.00;99616.97;5016477;28;20219;-50
2022/01/08 04:40:34;;;;;;;2.90;1.00;;;;;;;3.04;100.00;99623.81;5021326;28;20200;-50
2022/01/08 04:43:01;;;;;;;3.30;1.50;;;;;;;3.07;100.00;99641.75;5025013;28;20202;-53
2022/01/08 04:45:30;;;;;;;1.97;1.30;;;;;;;3.08;100.00;99642.63;5022054;28;20390;-50
2022/01/08 04:48:00;;;;;;;0.93;0.83;;;;;;;3.10;100.00;99656.28;5024709;28;20303;-50
2022/01/08 04:50:27;;;;;;;2.10;1.00;;;;;;;3.13;100.00;99664.84;5017378;28;20750;-50
2022/01/08 04:52:52;;;;;;;1.20;1.07;;;;;;;3.16;100.00;99679.34;5017179;28;20187;-50
2022/01/08 04:55:18;;;;;;;1.50;1.30;;;;;;;3.19;100.00;99685.34;5019998;28;20202;-50
2022/01/08 04:57:44;;;;;;;1.33;1.03;;;;;;;3.22;100.00;99705.00;5017233;28;20671;-50
2022/01/08 05:00:10;;;;;;;1.43;1.07;;;;;;;3.25;100.00;99720.38;5016767;28;20287;-50
2022/01/08 05:02:36;;;;;;;1.10;0.93;;;;;;;3.26;100.00;99718.66;5016432;28;20279;-50
2022/01/08 05:05:02;;;;;;;1.50;1.10;;;;;;;3.30;100.00;99751.13;5025892;28;20325;-50
2022/01/08 05:07:27;;;;;;;1.00;0.90;;;;;;;3.31;100.00;99763.91;5020577;28;20672;-50
2022/01/08 05:09:52;;;;;;;1.00;0.80;;;;;;;3.32;100.00;99772.47;5017401;28;20259;-51
2022/01/08 05:12:18;;;;;;;0.67;0.60;;;;;;;3.32;100.00;99780.13;5019530;28;20187;-50
2022/01/08 05:14:44;;;;;;;1.03;0.70;;;;;;;3.30;100.00;99798.00;5020028;28;20199;-50
2022/01/08 05:17:10;;;;;;;0.87;0.57;;;;;;;3.23;100.00;99808.13;5012702;28;20290;-50
2022/01/08 05:19:46;;;;;;;0.23;0.20;;;;;;;3.19;100.00;99820.88;5016928;28;20668;-51
2022/01/08 05:22:20;;;;;;;0.63;0.43;;;;;;;3.16;100.00;99825.09;5020378;28;20614;-50
2022/01/08 05:24:46;;;;;;;0.30;0.30;;;;;;;3.11;100.00;99834.38;5019750;28;20237;-50
2022/01/08 05:27:15;;;;;;;0.30;0.30;;;;;;;2.99;100.00;99848.72;5018847;28;20211;-50
2022/01/08 05:29:41;;;;;;;0.40;0.30;;;;;;;2.93;100.00;99856.31;5017473;28;20187;-49
2022/01/08 05:32:07;;;;;;;0.43;0.37;;;;;;;2.90;100.00;99871.59;5013006;28;20679;-49
2022/01/08 05:34:33;;;;;;;0.40;0.20;;;;;;;2.85;100.00;99881.75;5019819;28;22561;-50
2022/01/08 05:36:59;;;;;;;0.40;0.30;;;;;;;2.85;100.00;99902.19;5020326;28;20208;-49
2022/01/08 05:39:24;;;;;;;1.30;0.33;;;;;;;2.84;100.00;99909.81;5020680;28;20223;-49
2022/01/08 05:41:50;;;;;;;0.30;0.30;;;;;;;2.83;100.00;99920.88;5020782;28;20188;-52
2022/01/08 05:44:15;;;;;;;0.83;0.30;;;;;;;2.85;100.00;99929.44;5017551;28;20575;-49
2022/01/08 05:46:44;;;;;;;0.13;0.13;;;;;;;2.86;100.00;99928.59;5016452;28;20612;-49
2022/01/08 05:49:10;;;;;;;0.33;0.30;;;;;;;2.83;100.00;99939.66;5009479;28;20184;-50
2022/01/08 05:51:35;;;;;;;0.30;0.30;;;;;;;2.83;100.00;99943.88;5019589;28;20597;-50
2022/01/08 05:54:00;;;;;;;0.40;0.40;;;;;;;2.80;100.00;99954.91;5017920;28;20266;-50
2022/01/08 05:56:26;;;;;;;0.30;0.30;;;;;;;2.78;100.00;99956.59;5015439;28;20183;-50
2022/01/08 05:58:51;;;;;;;1.20;0.33;;;;;;;2.77;100.00;99959.97;5014320;28;20255;-50
2022/01/08 06:01:17;;;;;;;0.63;0.30;;;;;;;2.77;100.00;99972.75;5016926;28;20192;-49
2022/01/08 06:03:42;;;;;;;0.30;0.23;;;;;;;2.78;100.00;99983.84;5013862;28;20193;-50
2022/01/08 06:06:07;;;;;;;0.40;0.30;;;;;;;2.77;100.00;99990.63;5018370;28;20206;-50
2022/01/08 06:08:33;;;;;;;0.40;0.37;;;;;;;2.77;100.00;99998.31;5025480;28;20216;-50
2022/01/08 06:10:58;;;;;;;0.60;0.50;;;;;;;2.77;100.00;100000.00;5015059;28;20223;-50
2022/01/08 06:13:23;;;;;;;1.10;0.30;;;;;;;2.76;100.00;100004.25;5013900;28;20290;-50
2022/01/08 06:15:49;;;;;;;0.60;0.40;;;;;;;2.78;100.00;100011.97;5016522;28;20188;-50
2022/01/08 06:18:16;;;;;;;0.87;0.30;;;;;;;2.80;100.00;100023.06;5015905;28;20684;-50
2022/01/08 06:20:42;;;;;;;1.40;0.50;;;;;;;2.81;100.00;100032.44;5015429;28;20191;-49
2022/01/08 06:23:07;;;;;;;0.63;0.50;;;;;;;2.82;100.00;100026.50;5016563;28;20568;-50
2022/01/08 06:25:32;;;;;;;0.40;0.40;;;;;;;2.83;100.00;100028.22;5016895;28;20194;-49
2022/01/08 06:27:58;;;;;;;0.90;0.40;;;;;;;2.82;100.00;100036.72;5015168;28;20216;-50
2022/01/08 06:30:24;;;;;;;0.30;0.20;;;;;;;2.83;100.00;100041.00;5007519;28;20200;-50
2022/01/08 06:32:49;;;;;;;0.60;0.40;;;;;;;2.84;100.00;100047.84;5009662;28;20198;-49
2022/01/08 06:35:15;;;;;;;0.57;0.33;;;;;;;2.85;100.00;100057.22;5014417;28;20839;-50
2022/01/08 06:37:40;;;;;;;1.90;0.47;;;;;;;2.86;100.00;100064.06;5011717;28;20207;-49
2022/01/08 06:40:08;;;;;;;0.57;0.50;;;;;;;2.87;100.00;100069.19;5017971;28;20188;-49
2022/01/08 06:42:33;;;;;;;0.70;0.60;;;;;;;2.87;100.00;100074.31;5015582;28;20231;-49
2022/01/08 06:44:59;;;;;;;0.50;0.40;;;;;;;2.88;100.00;100085.41;5019028;28;20227;-49
2022/01/08 06:47:24;;;;;;;1.23;0.50;;;;;;;2.89;100.00;100089.69;5017406;28;20223;-50
2022/01/08 06:49:49;;;;;;;0.93;0.50;;;;;;;2.92;100.00;100087.19;5012238;28;20200;-50
2022/01/08 06:52:15;;;;;;;1.63;0.63;;;;;;;2.93;100.00;100082.94;5019487;28;20270;-50
2022/01/08 06:54:40;;;;;;;0.97;0.60;;;;;;;2.90;100.00;100099.09;5015973;28;20680;-50
2022/01/08 06:57:06;;;;;;;1.20;0.73;;;;;;;2.86;100.00;100095.63;5013566;28;20681;-50
2022/01/08 06:59:31;;;;;;;1.23;0.90;;;;;;;2.85;100.00;100095.56;5013572;28;20218;-50
2022/01/08 07:01:56;;;;;;;0.90;0.77;;;;;;;2.82;100.00;100105.72;5016671;28;20193;-50
2022/01/08 07:04:22;;;;;;;1.27;1.00;;;;;;;2.80;100.00;100110.81;5018698;28;20196;-50
2022/01/08 07:06:47;;;;;;;1.43;1.00;;;;;;;2.79;100.00;100114.19;5021790;28;20198;-50
2022/01/08 07:09:12;;;;;;;2.17;1.57;;;;;;;2.78;100.00;100126.97;5015645;28;20214;-50
2022/01/08 07:11:38;;;;;;;3.53;2.00;;;;;;;2.77;100.00;100130.34;5013337;28;20516;-50
2022/01/08 07:14:03;;;;;;;3.40;1.90;;;;;;;2.76;100.00;100137.13;5013143;28;20243;-50
2022/01/08 07:16:28;;;;;;;3.50;2.20;;;;;;;2.74;100.00;100137.13;5014296;28;20199;-50
2022/01/08 07:18:54;;;;;;;4.47;2.50;;;;;;;2.72;100.00;100141.31;5010573;28;20242;-50
2022/01/08 07:21:19;;;;;;;4.83;2.47;;;;;;;2.73;100.00;100148.16;5010003;28;20863;-50
2022/01/08 07:23:44;;;;;;;3.50;2.43;;;;;;;2.73;100.00;100160.06;5012357;28;20226;-50
2022/01/08 07:26:10;;;;;;;3.03;2.20;;;;;;;2.72;100.00;100159.22;5011383;28;20191;-51
2022/01/08 07:28:35;;;;;;;2.60;1.70;;;;;;;2.73;100.00;100171.16;5015469;28;20824;-50
2022/01/08 07:31:01;;;;;;;3.60;2.50;;;;;;;2.75;100.00;100183.97;5015824;28;20712;-50
2022/01/08 07:33:26;;;;;;;2.40;1.80;;;;;;;2.76;100.00;100185.69;5016638;28;21417;-50
2022/01/08 07:35:51;;;;;;;2.83;1.83;;;;;;;2.76;100.00;100200.19;5015082;28;20189;-49
2022/01/08 07:38:17;;;;;;;2.80;1.60;;;;;;;2.74;100.00;100197.56;5016015;28;20222;-49
2022/01/08 07:40:42;;;;;;;2.53;1.53;;;;;;;2.74;100.00;100202.69;5020318;28;20187;-49
2022/01/08 07:43:08;;;;;;;2.23;1.70;;;;;;;2.74;100.00;100210.34;5018528;28;20714;-50
2022/01/08 07:45:33;;;;;;;2.40;2.00;;;;;;;2.75;100.00;100217.19;5014683;28;20676;-49
2022/01/08 07:47:59;;;;;;;2.73;2.07;;;;;;;2.74;100.00;100220.56;5014884;28;20199;-50
2022/01/08 07:50:24;;;;;;;2.10;1.90;;;;;;;2.74;100.00;100229.13;5018099;28;20188;-49
2022/01/08 07:52:49;;;;;;;1.90;1.80;;;;;;;2.73;100.00;100232.50;5022566;28;20550;-49
2022/01/08 07:55:15;;;;;;;2.07;1.83;;;;;;;2.76;100.00;100233.41;5019376;28;20237;-49
2022/01/08 07:57:40;;;;;;;3.80;2.80;;;;;;;2.74;100.00;100244.44;5016500;28;20211;-49
2022/01/08 08:00:07;;;;;;;4.07;2.40;;;;;;;2.75;100.00;100240.19;5019451;28;20589;-52
2022/01/08 08:02:32;;;;;;;4.57;2.80;;;;;;;2.74;100.00;100249.56;5021204;28;20661;-50
2022/01/08 08:04:57;;;;;;;3.73;2.60;;;;;;;2.75;100.00;100252.97;5017808;28;20282;-49
2022/01/08 08:07:31;;;;;;;3.13;2.83;;;;;;;2.78;100.00;100249.63;5026802;28;20211;-49
2022/01/08 08:09:57;;;;;;;3.80;2.87;;;;;;;2.74;100.00;100254.66;5024012;28;20229;-50
2022/01/08 08:12:23;;;;;;;3.70;2.83;;;;;;;2.76;100.00;100262.34;5024094;28;20176;-50
2022/01/08 08:14:48;;;;;;;4.47;3.10;;;;;;;2.77;100.00;100265.78;5026302;28;20871;-50
2022/01/08 08:17:14;;;;;;;2.97;2.30;;;;;;;2.77;100.00;100276.88;5028718;28;20210;-50
2022/01/08 08:19:39;;;;;;;3.27;2.20;;;;;;;2.80;100.00;100276.09;5023124;28;20626;-50
2022/01/08 08:22:04;;;;;;;3.63;2.20;;;;;;;2.82;100.00;100277.84;5028205;28;20188;-50
2022/01/08 08:24:33;;;;;;;3.20;2.40;;;;;;;2.85;100.00;100277.03;5026887;28;20190;-51
2022/01/08 08:26:58;;;;;;;2.60;2.40;;;;;;;2.90;100.00;100278.03;5016033;28;20290;-50
2022/01/08 08:29:23;;;;;;;4.37;2.57;;;;;;;2.94;100.00;100292.59;5028413;28;20640;-49
2022/01/08 08:31:49;;;;;;;3.40;2.47;;;;;;;2.94;100.00;100292.59;5020219;28;20274;-50
2022/01/08 08:34:14;;;;;;;5.00;2.53;;;;;;;2.96;100.00;100297.75;5030481;28;20342;-50
2022/01/08 08:36:40;;;;;;;3.07;2.00;;;;;;;2.95;100.00;100298.56;5024583;28;20195;-50
2022/01/08 08:39:05;;;;;;;3.43;2.13;;;;;;;2.96;100.00;100298.59;5025208;28;20265;-50
2022/01/08 08:41:30;;;;;;;1.97;1.77;;;;;;;2.97;100.00;100291.81;5023826;28;20307;-50
2022/01/08 08:43:56;;;;;;;2.20;2.00;;;;;;;3.01;100.00;100301.28;5016989;28;20555;-50
2022/01/08 08:46:21;;;;;;;2.60;1.70;;;;;;;3.03;100.00;100308.13;5018657;28;20536;-50
2022/01/08 08:48:47;;;;;;;3.10;1.90;;;;;;;3.07;100.00;100296.28;5015659;28;20204;-50
2022/01/08 08:51:12;;;;;;;2.70;1.70;;;;;;;3.08;100.00;100300.56;5016812;28;20193;-50
2022/01/08 08:53:38;;;;;;;3.47;1.40;;;;;;;3.12;100.00;100306.59;5019332;28;20179;-50
2022/01/08 08:56:04;;;;;;;2.53;2.07;;;;;;;3.14;100.00;100313.50;5020159;28;20187;-50
2022/01/08 08:58:29;;;;;;;2.37;1.80;;;;;;;3.16;100.00;100318.63;5023132;28;20579;-50
2022/01/08 09:00:55;;;;;;;3.13;1.57;;;;;;;3.17;100.00;100317.78;5015371;28;20279;-50
2022/01/08 09:03:21;;;;;;;2.17;1.60;;;;;;;3.20;100.00;100326.41;5022702;28;20746;-51
2022/01/08 09:05:46;;;;;;;2.87;1.53;;;;;;;3.24;100.00;100318.78;5023304;28;20256;-51
2022/01/08 09:08:11;;;;;;;2.20;1.70;;;;;;;3.31;100.00;100320.66;5016273;28;20286;-50
2022/01/08 09:10:37;;;;;;;2.97;1.50;;;;;;;3.37;100.00;100320.78;5012416;28;20188;-49
2022/01/08 09:13:02;;;;;;;2.43;2.03;;;;;;;3.40;100.00;100322.56;5019053;28;20190;-50
2022/01/08 09:15:28;;;;;;;3.93;2.00;;;;;;;3.42;100.00;100323.41;5016910;28;20183;-49
2022/01/08 09:17:58;;;;;;;3.87;2.10;;;;;;;3.46;100.00;100325.22;5017640;28;20799;-50
2022/01/08 09:20:27;;;;;;;4.20;2.17;;;;;;;3.50;100.00;100332.13;5012708;28;20179;-50
2022/01/08 09:22:52;;;;;;;3.03;2.00;;;;;;;3.55;100.00;100330.56;5018714;28;20882;-50
2022/01/08 09:25:18;;;;;;;4.73;2.03;;;;;;;3.58;100.00;100334.84;5018252;28;20218;-49
2022/01/08 09:27:44;;;;;;;2.23;1.90;;;;;;;3.61;100.00;100337.47;5018743;28;20265;-49
2022/01/08 09:30:09;;;;;;;5.17;2.40;;;;;;;3.64;100.00;100332.41;5017844;28;20545;-50
2022/01/08 09:32:35;;;;;;;2.73;2.13;;;;;;;3.68;100.00;100330.78;5020033;28;20901;-49
2022/01/08 09:35:01;;;;;;;4.80;2.40;;;;;;;3.69;100.00;100335.06;5011467;28;20203;-49
2022/01/08 09:37:26;;;;;;;3.20;2.30;;;;;;;3.70;100.00;100334.25;5022517;28;20598;-49
2022/01/08 09:39:52;;;;;;;4.93;2.40;;;;;;;3.72;100.00;100330.00;5026854;28;20257;-49
2022/01/08 09:42:19;;;;;;;2.87;1.97;;;;;;;3.74;100.00;100336.00;5021982;28;20605;-49
2022/01/08 09:44:44;;;;;;;4.70;2.03;;;;;;;3.78;100.00;100322.44;5016942;28;20188;-49
2022/01/08 09:47:11;;;;;;;3.50;2.20;;;;;;;3.78;100.00;100325.84;5015844;28;20210;-50
2022/01/08 09:49:38;;;;;;;4.47;2.50;;;;;;;3.83;100.00;100328.53;5014767;28;20270;-50
2022/01/08 09:52:04;;;;;;;2.83;2.00;;;;;;;3.87;100.00;100321.75;5015509;28;20195;-50
2022/01/08 09:54:32;;;;;;;4.43;2.23;;;;;;;3.91;100.00;100321.84;5014736;28;20184;-49
2022/01/08 09:56:58;;;;;;;2.10;1.87;;;;;;;4.01;100.00;100316.91;5014159;28;20281;-50
2022/01/08 09:59:24;;;;;;;3.37;2.07;;;;;;;4.15;100.00;100299.22;5014696;28;20731;-50
2022/01/08 10:01:55;;;;;;;6.13;1.97;;;;;;;4.32;100.00;100302.06;5016891;28;20188;-50
2022/01/08 10:04:25;;;;;;;3.83;1.93;;;;;;;4.41;100.00;100297.94;5024319;28;20190;-50
2022/01/08 10:06:51;;;;;;;5.70;2.30;;;;;;;4.53;100.00;100297.28;5017838;28;20184;-52
2022/01/08 10:09:16;;;;;;;3.93;1.93;;;;;;;4.65;100.00;100295.75;5013663;28;20176;-49
2022/01/08 10:11:49;;;;;;;3.67;2.20;;;;;;;4.71;100.00;100296.72;5014231;28;20298;-50
2022/01/08 10:14:27;;;;;;;3.23;1.80;;;;;;;4.71;100.00;100298.41;5015055;28;20193;-50
2022/01/08 10:19:37;;;;;;;2.83;1.80;;;;;;;4.67;100.00;100296.66;5021084;28;20222;-49
2022/01/08 10:22:14;;;;;;;2.80;1.70;;;;;;;4.67;100.00;100288.94;5017678;28;20188;-50
2022/01/08 10:24:39;;;;;;;2.17;1.93;;;;;;;4.64;100.00;100288.91;5016897;28;20198;-49
2022/01/08 10:27:06;;;;;;;3.30;2.07;;;;;;;4.65;100.00;100293.19;5025289;28;20282;-49
2022/01/08 10:29:33;;;;;;;2.43;1.80;;;;;;;4.66;100.00;100282.97;5023271;28;20203;-49
2022/01/08 10:31:59;;;;;;;3.90;2.00;;;;;;;4.65;100.00;100286.38;5028698;28;20184;-49
2022/01/08 10:34:27;;;;;;;2.63;1.73;;;;;;;4.61;100.00;100281.19;5021321;28;20184;-49
2022/01/08 10:37:03;;;;;;;2.33;1.70;;;;;;;4.67;100.00;100279.56;5022408;28;20190;-50
2022/01/08 10:39:31;;;;;;;4.70;2.00;;;;;;;4.71;100.00;100280.47;5012149;28;20293;-50
2022/01/08 10:41:58;;;;;;;5.03;2.20;;;;;;;4.69;100.00;100274.47;5022234;28;20604;-50
2022/01/08 10:44:30;;;;;;;2.80;1.60;;;;;;;4.67;100.00;100277.00;5021502;28;20192;-50
2022/01/08 10:47:00;;;;;;;3.37;1.70;;;;;;;4.64;100.00;100273.53;5024103;28;20201;-50
2022/01/08 10:49:40;;;;;;;3.57;1.90;;;;;;;4.61;100.00;100264.09;5026090;28;20223;-49
2022/01/08 10:52:08;;;;;;;4.87;2.03;;;;;;;4.56;100.00;100264.03;5012905;28;20536;-50
2022/01/08 10:54:36;;;;;;;3.60;1.53;;;;;;;4.56;100.00;100266.59;5019808;28;20191;-50
2022/01/08 10:57:06;;;;;;;3.23;2.03;;;;;;;4.54;100.00;100265.69;5018974;28;20204;-50
2022/01/08 10:59:32;;;;;;;2.23;1.50;;;;;;;4.54;100.00;100260.56;5024245;28;20677;-50
2022/01/08 11:02:10;;;;;;;3.23;1.73;;;;;;;4.57;100.00;100267.44;5019692;28;20503;-50
2022/01/08 11:04:36;;;;;;;2.27;1.43;;;;;;;4.56;100.00;100264.03;5032078;28;20552;-50
2022/01/08 11:07:06;;;;;;;2.73;1.80;;;;;;;4.57;100.00;100259.75;5017882;28;20207;-50
2022/01/08 11:09:32;;;;;;;2.17;1.80;;;;;;;4.52;100.00;100259.69;5025711;28;20184;-50
2022/01/08 11:12:00;;;;;;;2.77;1.87;;;;;;;4.49;100.00;100256.22;5025238;28;20601;-50
2022/01/08 11:17:24;;;;;;;3.23;1.90;;;;;;;4.40;100.00;100249.25;5026332;28;20218;-50
2022/01/08 11:19:52;;;;;;;3.10;1.80;;;;;;;4.42;100.00;100245.00;5026454;28;20201;-50
2022/01/08 11:22:20;;;;;;;2.73;1.80;;;;;;;4.49;100.00;100240.84;5021967;28;20183;-50
2022/01/08 11:25:13;;;;;;;3.20;1.77;;;;;;;4.60;100.00;100239.28;5029713;28;20237;-50
2022/01/08 11:27:50;;;;;;;2.80;1.83;;;;;;;4.70;100.00;100233.44;5025344;28;20207;-50
2022/01/08 11:30:23;;;;;;;2.67;1.77;;;;;;;4.74;100.00;100231.81;5028705;28;20186;-50
2022/01/08 11:32:50;;;;;;;3.90;2.10;;;;;;;4.75;100.00;100222.41;5029938;28;20187;-50
2022/01/08 11:35:16;;;;;;;3.23;1.70;;;;;;;4.78;100.00;100220.75;5027925;28;20356;-49
2022/01/08 11:37:47;;;;;;;2.27;1.60;;;;;;;4.90;100.00;100214.06;5029018;28;20205;-51
2022/01/08 11:40:15;;;;;;;2.80;1.97;;;;;;;5.06;100.00;100203.16;5020804;28;20535;-51
2022/01/08 11:42:41;;;;;;;2.57;1.60;;;;;;;5.17;100.00;100200.72;5026273;28;20191;-50
2022/01/08 11:45:11;;;;;;;2.33;1.90;;;;;;;5.17;100.00;100193.91;5024522;28;20184;-49
2022/01/08 11:47:41;;;;;;;3.17;1.90;;;;;;;5.18;100.00;100192.16;5016780;28;20243;-49
2022/01/08 11:50:08;;;;;;;3.97;2.00;;;;;;;5.29;100.00;100187.16;5027908;28;20271;-49
2022/01/08 11:52:33;;;;;;;2.60;1.90;;;;;;;5.46;100.00;100171.94;5031116;28;20187;-49
2022/01/08 11:55:00;;;;;;;2.37;1.83;;;;;;;5.71;100.00;100165.34;5026140;28;20236;-49